createdAt,value
2017-10-14T00:00:51.723Z,0
2017-10-14T00:01:54.169Z,0
2017-10-14T00:02:56.603Z,0
2017-10-14T00:03:59.040Z,0
2017-10-14T00:05:01.470Z,0
2017-10-14T00:06:03.914Z,0
2017-10-14T00:07:06.343Z,0
2017-10-14T00:08:08.776Z,0
2017-10-14T00:09:11.217Z,0
2017-10-14T00:10:14.007Z,0
2017-10-14T00:11:16.445Z,0
2017-10-14T00:12:18.914Z,0
2017-10-14T00:13:21.355Z,0
2017-10-14T00:14:23.803Z,0
2017-10-14T00:15:26.238Z,0
2017-10-14T00:16:29.038Z,0
2017-10-14T00:17:31.470Z,0
2017-10-14T00:18:33.904Z,0
2017-10-14T00:19:36.335Z,0
2017-10-14T00:20:38.761Z,0
2017-10-14T00:21:41.197Z,0
2017-10-14T00:22:43.639Z,0
2017-10-14T00:23:46.079Z,0
2017-10-14T00:24:48.508Z,0
2017-10-14T00:25:50.946Z,0
2017-10-14T00:26:53.375Z,0
2017-10-14T00:27:55.810Z,0
2017-10-14T00:28:58.625Z,0
2017-10-14T00:30:01.041Z,0
2017-10-14T00:31:03.489Z,0
2017-10-14T00:32:05.917Z,0
2017-10-14T00:33:08.354Z,0
2017-10-14T00:34:10.789Z,0
2017-10-14T00:35:13.220Z,0
2017-10-14T00:36:15.651Z,0
2017-10-14T00:37:18.108Z,0
2017-10-14T00:38:20.531Z,0
2017-10-14T00:39:22.969Z,0
2017-10-14T00:40:25.400Z,0
2017-10-14T00:41:27.833Z,0
2017-10-14T00:42:30.264Z,0
2017-10-14T00:43:32.713Z,0
2017-10-14T00:44:35.135Z,0
2017-10-14T00:45:37.584Z,0
2017-10-14T00:46:40.014Z,0
2017-10-14T00:47:42.807Z,0
2017-10-14T00:48:45.245Z,0
2017-10-14T00:49:47.679Z,0
2017-10-14T00:50:50.116Z,0
2017-10-14T00:51:52.562Z,0
2017-10-14T00:52:54.992Z,0
2017-10-14T00:53:57.436Z,0
2017-10-14T00:54:59.869Z,0
2017-10-14T00:56:02.294Z,0
2017-10-14T00:57:04.729Z,0
2017-10-14T00:58:07.168Z,0
2017-10-14T00:59:09.602Z,0
2017-10-14T01:00:12.037Z,0
2017-10-14T01:01:14.475Z,0
2017-10-14T01:02:16.902Z,0
2017-10-14T01:03:19.755Z,0
2017-10-14T01:04:22.180Z,0
2017-10-14T01:05:24.619Z,0
2017-10-14T01:06:27.045Z,0
2017-10-14T01:07:29.485Z,0
2017-10-14T01:08:31.914Z,0
2017-10-14T01:09:34.345Z,0
2017-10-14T01:10:36.796Z,0
2017-10-14T01:11:39.219Z,0
2017-10-14T01:12:41.647Z,0
2017-10-14T01:13:44.082Z,0
2017-10-14T01:14:46.514Z,0
2017-10-14T01:15:48.949Z,0
2017-10-14T01:16:51.384Z,0
2017-10-14T01:17:53.816Z,0
2017-10-14T01:18:56.615Z,0
2017-10-14T01:19:59.061Z,0
2017-10-14T01:21:01.497Z,0
2017-10-14T01:22:03.923Z,0
2017-10-14T01:23:06.736Z,0
2017-10-14T01:24:09.172Z,0
2017-10-14T01:25:11.604Z,0
2017-10-14T01:26:14.399Z,0
2017-10-14T01:27:16.822Z,0
2017-10-14T01:28:19.262Z,0
2017-10-14T01:29:21.692Z,0
2017-10-14T01:30:24.492Z,0
2017-10-14T01:31:26.930Z,0
2017-10-14T01:32:29.373Z,0
2017-10-14T01:33:31.803Z,0
2017-10-14T01:34:34.234Z,0
2017-10-14T01:35:36.670Z,0
2017-10-14T01:36:39.459Z,0
2017-10-14T01:37:41.897Z,0
2017-10-14T01:38:44.329Z,0
2017-10-14T01:39:46.770Z,0
2017-10-14T01:40:49.197Z,0
2017-10-14T01:41:51.633Z,0
2017-10-14T01:42:54.069Z,0
2017-10-14T01:43:56.862Z,0
2017-10-14T01:44:59.303Z,0
2017-10-14T01:46:01.747Z,0
2017-10-14T01:47:04.181Z,0
2017-10-14T01:48:06.620Z,0
2017-10-14T01:49:09.053Z,0
2017-10-14T01:50:11.490Z,0
2017-10-14T01:51:13.931Z,0
2017-10-14T01:52:16.728Z,0
2017-10-14T01:53:19.154Z,0
2017-10-14T01:54:21.600Z,0
2017-10-14T01:55:24.028Z,0
2017-10-14T01:56:26.462Z,0
2017-10-14T01:57:28.901Z,0
2017-10-14T01:58:31.329Z,0
2017-10-14T01:59:33.761Z,0
2017-10-14T02:00:36.545Z,0
2017-10-14T02:01:38.973Z,0
2017-10-14T02:02:41.422Z,0
2017-10-14T02:03:43.856Z,0
2017-10-14T02:04:46.989Z,0
2017-10-14T02:05:49.771Z,0
2017-10-14T02:06:52.215Z,0
2017-10-14T02:07:54.627Z,0
2017-10-14T02:08:57.772Z,0
2017-10-14T02:10:00.213Z,0
2017-10-14T02:11:02.644Z,0
2017-10-14T02:12:05.082Z,0
2017-10-14T02:13:07.867Z,0
2017-10-14T02:14:10.303Z,0
2017-10-14T02:15:12.750Z,0
2017-10-14T02:16:15.541Z,0
2017-10-14T02:17:17.976Z,0
2017-10-14T02:18:20.404Z,0
2017-10-14T02:19:23.200Z,0
2017-10-14T02:20:25.635Z,0
2017-10-14T02:21:28.063Z,0
2017-10-14T02:22:30.492Z,0
2017-10-14T02:23:32.926Z,0
2017-10-14T02:24:35.357Z,0
2017-10-14T02:25:37.800Z,0
2017-10-14T02:26:40.228Z,0
2017-10-14T02:27:42.661Z,0
2017-10-14T02:28:45.110Z,0
2017-10-14T02:29:47.544Z,0
2017-10-14T02:30:49.976Z,0
2017-10-14T02:31:52.419Z,0
2017-10-14T02:32:54.856Z,0
2017-10-14T02:33:57.663Z,0
2017-10-14T02:35:00.098Z,0
2017-10-14T02:36:02.515Z,0
2017-10-14T02:37:04.959Z,0
2017-10-14T02:38:07.396Z,0
2017-10-14T02:39:09.821Z,0
2017-10-14T02:40:12.259Z,0
2017-10-14T02:41:14.699Z,0
2017-10-14T02:42:17.492Z,0
2017-10-14T02:43:19.934Z,0
2017-10-14T02:44:22.358Z,0
2017-10-14T02:45:24.804Z,0
2017-10-14T02:46:27.238Z,0
2017-10-14T02:47:29.674Z,0
2017-10-14T02:48:32.103Z,0
2017-10-14T02:49:34.546Z,0
2017-10-14T02:50:36.982Z,0
2017-10-14T02:51:39.419Z,0
2017-10-14T02:52:41.858Z,0
2017-10-14T02:53:44.291Z,0
2017-10-14T02:54:47.094Z,0
2017-10-14T02:55:49.507Z,0
2017-10-14T02:56:52.302Z,0
2017-10-14T02:57:55.089Z,0
2017-10-14T02:58:57.520Z,0
2017-10-14T02:59:59.964Z,0
2017-10-14T03:01:02.393Z,0
2017-10-14T03:02:04.881Z,0
2017-10-14T03:03:07.323Z,0
2017-10-14T03:04:09.760Z,0
2017-10-14T03:05:12.198Z,0
2017-10-14T03:06:14.634Z,0
2017-10-14T03:07:17.076Z,0
2017-10-14T03:08:19.866Z,0
2017-10-14T03:09:22.283Z,0
2017-10-14T03:10:24.726Z,0
2017-10-14T03:11:27.508Z,0
2017-10-14T03:12:29.951Z,0
2017-10-14T03:13:32.381Z,0
2017-10-14T03:14:34.816Z,0
2017-10-14T03:15:37.249Z,0
2017-10-14T03:16:40.049Z,0
2017-10-14T03:17:42.477Z,0
2017-10-14T03:18:44.900Z,0
2017-10-14T03:19:47.328Z,0
2017-10-14T03:20:49.757Z,0
2017-10-14T03:21:52.199Z,0
2017-10-14T03:22:54.636Z,0
2017-10-14T03:23:57.061Z,0
2017-10-14T03:24:59.508Z,0
2017-10-14T03:26:01.938Z,0
2017-10-14T03:27:04.375Z,0
2017-10-14T03:28:07.163Z,0
2017-10-14T03:29:09.598Z,0
2017-10-14T03:30:12.033Z,0
2017-10-14T03:31:14.483Z,0
2017-10-14T03:32:16.904Z,0
2017-10-14T03:33:19.704Z,0
2017-10-14T03:34:22.140Z,0
2017-10-14T03:35:24.568Z,0
2017-10-14T03:36:27.003Z,0
2017-10-14T03:37:29.436Z,0
2017-10-14T03:38:32.221Z,0
2017-10-14T03:39:34.657Z,0
2017-10-14T03:40:37.085Z,0
2017-10-14T03:41:39.890Z,0
2017-10-14T03:42:42.342Z,0
2017-10-14T03:43:44.768Z,0
2017-10-14T03:44:47.205Z,0
2017-10-14T03:45:49.640Z,0
2017-10-14T03:46:52.082Z,0
2017-10-14T03:47:54.509Z,0
2017-10-14T03:48:56.947Z,0
2017-10-14T03:49:59.379Z,0
2017-10-14T03:51:01.818Z,0
2017-10-14T03:52:04.252Z,0
2017-10-14T03:53:06.676Z,0
2017-10-14T03:54:09.110Z,0
2017-10-14T03:55:11.536Z,0
2017-10-14T03:56:13.972Z,0
2017-10-14T03:57:16.427Z,0
2017-10-14T03:58:18.849Z,0
2017-10-14T03:59:21.292Z,0
2017-10-14T04:00:23.727Z,0
2017-10-14T04:01:26.169Z,0
2017-10-14T04:02:28.604Z,0
2017-10-14T04:03:31.045Z,0
2017-10-14T04:04:33.465Z,0
2017-10-14T04:05:36.264Z,0
2017-10-14T04:06:38.703Z,0
2017-10-14T04:07:41.147Z,0
2017-10-14T04:08:43.568Z,0
2017-10-14T04:09:46.008Z,0
2017-10-14T04:10:48.444Z,0
2017-10-14T04:11:50.883Z,0
2017-10-14T04:12:53.314Z,0
2017-10-14T04:13:56.109Z,0
2017-10-14T04:14:58.543Z,0
2017-10-14T04:16:00.987Z,0
2017-10-14T04:17:03.426Z,0
2017-10-14T04:18:05.857Z,0
2017-10-14T04:19:08.681Z,0
2017-10-14T04:20:11.113Z,0
2017-10-14T04:21:13.541Z,0
2017-10-14T04:22:15.978Z,0
2017-10-14T04:23:18.404Z,0
2017-10-14T04:24:20.837Z,0
2017-10-14T04:25:23.276Z,0
2017-10-14T04:26:25.712Z,0
2017-10-14T04:27:28.145Z,0
2017-10-14T04:28:30.585Z,0
2017-10-14T04:29:33.014Z,0
2017-10-14T04:30:35.469Z,0
2017-10-14T04:31:37.896Z,0
2017-10-14T04:32:40.326Z,0
2017-10-14T04:33:42.760Z,0
2017-10-14T04:34:45.196Z,0
2017-10-14T04:35:47.635Z,0
2017-10-14T04:36:50.791Z,0
2017-10-14T04:37:53.564Z,0
2017-10-14T04:38:56.004Z,0
2017-10-14T04:39:58.433Z,0
2017-10-14T04:41:00.876Z,0
2017-10-14T04:42:03.662Z,0
2017-10-14T04:43:06.098Z,0
2017-10-14T04:44:08.532Z,0
2017-10-14T04:45:10.960Z,0
2017-10-14T04:46:13.754Z,0
2017-10-14T04:47:16.189Z,0
2017-10-14T04:48:18.620Z,0
2017-10-14T04:49:21.448Z,0
2017-10-14T04:50:23.878Z,0
2017-10-14T04:51:26.310Z,0
2017-10-14T04:52:28.748Z,0
2017-10-14T04:53:31.183Z,0
2017-10-14T04:54:33.629Z,0
2017-10-14T04:55:36.069Z,0
2017-10-14T04:56:38.501Z,0
2017-10-14T04:57:40.944Z,0
2017-10-14T04:58:43.376Z,0
2017-10-14T04:59:45.819Z,0
2017-10-14T05:00:48.618Z,0
2017-10-14T05:01:51.403Z,0
2017-10-14T05:02:53.834Z,0
2017-10-14T05:03:56.272Z,0
2017-10-14T05:04:59.058Z,0
2017-10-14T05:06:01.487Z,0
2017-10-14T05:07:03.926Z,0
2017-10-14T05:08:06.369Z,0
2017-10-14T05:09:08.799Z,0
2017-10-14T05:10:11.586Z,0
2017-10-14T05:11:14.015Z,0
2017-10-14T05:12:16.446Z,0
2017-10-14T05:13:19.255Z,0
2017-10-14T05:14:22.041Z,0
2017-10-14T05:15:24.471Z,0
2017-10-14T05:16:26.909Z,0
2017-10-14T05:17:29.350Z,0
2017-10-14T05:18:31.792Z,0
2017-10-14T05:19:34.238Z,0
2017-10-14T05:20:37.005Z,0
2017-10-14T05:21:39.447Z,0
2017-10-14T05:22:42.242Z,0
2017-10-14T05:23:44.676Z,0
2017-10-14T05:24:47.467Z,0
2017-10-14T05:25:49.897Z,0
2017-10-14T05:26:52.334Z,0
2017-10-14T05:27:54.776Z,0
2017-10-14T05:28:57.572Z,0
2017-10-14T05:29:59.999Z,0
2017-10-14T05:31:02.434Z,0
2017-10-14T05:32:04.876Z,0
2017-10-14T05:33:07.314Z,0
2017-10-14T05:34:09.747Z,0
2017-10-14T05:35:12.186Z,0
2017-10-14T05:36:14.981Z,1
2017-10-14T05:37:17.408Z,1
2017-10-14T05:38:20.201Z,1
2017-10-14T05:39:22.648Z,1
2017-10-14T05:40:25.450Z,1
2017-10-14T05:41:27.880Z,1
2017-10-14T05:42:30.317Z,2
2017-10-14T05:43:32.746Z,2
2017-10-14T05:44:35.544Z,2
2017-10-14T05:45:37.985Z,2
2017-10-14T05:46:40.407Z,2
2017-10-14T05:47:42.857Z,2
2017-10-14T05:48:45.301Z,2
2017-10-14T05:49:47.737Z,3
2017-10-14T05:50:50.186Z,3
2017-10-14T05:51:52.622Z,3
2017-10-14T05:52:55.058Z,3
2017-10-14T05:53:57.511Z,3
2017-10-14T05:54:59.945Z,3
2017-10-14T05:56:02.375Z,3
2017-10-14T05:57:05.170Z,3
2017-10-14T05:58:07.953Z,3
2017-10-14T05:59:10.386Z,3
2017-10-14T06:00:12.827Z,3
2017-10-14T06:01:15.254Z,3
2017-10-14T06:02:17.692Z,3
2017-10-14T06:03:20.140Z,4
2017-10-14T06:04:22.576Z,4
2017-10-14T06:05:25.001Z,4
2017-10-14T06:06:27.789Z,4
2017-10-14T06:07:30.227Z,5
2017-10-14T06:08:33.026Z,5
2017-10-14T06:09:35.460Z,5
2017-10-14T06:10:37.906Z,5
2017-10-14T06:11:40.334Z,5
2017-10-14T06:12:42.791Z,6
2017-10-14T06:13:45.216Z,6
2017-10-14T06:14:48.006Z,7
2017-10-14T06:15:50.435Z,7
2017-10-14T06:16:52.872Z,8
2017-10-14T06:17:55.311Z,8
2017-10-14T06:18:57.756Z,8
2017-10-14T06:20:00.532Z,9
2017-10-14T06:21:03.334Z,9
2017-10-14T06:22:06.118Z,9
2017-10-14T06:23:08.557Z,10
2017-10-14T06:24:10.988Z,12
2017-10-14T06:25:13.428Z,13
2017-10-14T06:26:15.855Z,13
2017-10-14T06:27:18.297Z,12
2017-10-14T06:28:20.724Z,12
2017-10-14T06:29:23.165Z,12
2017-10-14T06:30:25.600Z,13
2017-10-14T06:31:28.399Z,14
2017-10-14T06:32:30.837Z,15
2017-10-14T06:33:33.992Z,14
2017-10-14T06:34:36.421Z,14
2017-10-14T06:35:38.863Z,16
2017-10-14T06:36:41.287Z,17
2017-10-14T06:37:43.721Z,16
2017-10-14T06:38:46.164Z,16
2017-10-14T06:39:48.600Z,18
2017-10-14T06:40:51.031Z,19
2017-10-14T06:41:53.471Z,18
2017-10-14T06:42:55.902Z,17
2017-10-14T06:43:58.710Z,18
2017-10-14T06:45:01.147Z,19
2017-10-14T06:46:03.575Z,21
2017-10-14T06:47:06.011Z,20
2017-10-14T06:48:08.449Z,18
2017-10-14T06:49:10.881Z,18
2017-10-14T06:50:13.320Z,17
2017-10-14T06:51:15.742Z,17
2017-10-14T06:52:18.528Z,20
2017-10-14T06:53:21.342Z,19
2017-10-14T06:54:23.771Z,19
2017-10-14T06:55:26.196Z,18
2017-10-14T06:56:28.631Z,17
2017-10-14T06:57:31.069Z,19
2017-10-14T06:58:33.518Z,22
2017-10-14T06:59:35.968Z,24
2017-10-14T07:00:38.386Z,21
2017-10-14T07:01:41.182Z,20
2017-10-14T07:02:43.631Z,20
2017-10-14T07:03:46.067Z,21
2017-10-14T07:04:48.499Z,22
2017-10-14T07:05:50.940Z,24
2017-10-14T07:06:53.375Z,25
2017-10-14T07:07:55.808Z,24
2017-10-14T07:08:58.251Z,22
2017-10-14T07:10:00.692Z,22
2017-10-14T07:11:03.480Z,21
2017-10-14T07:12:06.064Z,21
2017-10-14T07:13:08.505Z,22
2017-10-14T07:14:10.939Z,21
2017-10-14T07:15:13.384Z,22
2017-10-14T07:16:15.820Z,23
2017-10-14T07:17:18.593Z,23
2017-10-14T07:18:21.404Z,26
2017-10-14T07:19:23.826Z,24
2017-10-14T07:20:26.274Z,26
2017-10-14T07:21:28.706Z,28
2017-10-14T07:23:01.182Z,29
2017-10-14T07:24:03.567Z,28
2017-10-14T07:25:05.957Z,27
2017-10-14T07:26:08.350Z,28
2017-10-14T07:27:10.716Z,28
2017-10-14T07:28:13.450Z,34
2017-10-14T07:29:15.842Z,33
2017-10-14T07:30:18.222Z,34
2017-10-14T07:31:20.606Z,35
2017-10-14T07:32:22.984Z,40
2017-10-14T07:33:25.357Z,36
2017-10-14T07:34:28.097Z,36
2017-10-14T07:35:30.468Z,40
2017-10-14T07:36:33.206Z,40
2017-10-14T07:37:35.597Z,40
2017-10-14T07:38:37.961Z,36
2017-10-14T07:39:40.347Z,32
2017-10-14T07:40:43.081Z,35
2017-10-14T07:41:45.832Z,37
2017-10-14T07:42:48.224Z,39
2017-10-14T07:43:50.608Z,38
2017-10-14T07:44:53.341Z,39
2017-10-14T07:45:55.728Z,40
2017-10-14T07:46:58.112Z,38
2017-10-14T07:48:00.486Z,38
2017-10-14T07:49:02.872Z,48
2017-10-14T07:50:05.250Z,53
2017-10-14T07:51:07.637Z,51
2017-10-14T07:52:10.025Z,49
2017-10-14T07:53:12.399Z,39
2017-10-14T07:54:14.785Z,32
2017-10-14T07:55:17.175Z,31
2017-10-14T07:56:19.553Z,37
2017-10-14T07:57:21.938Z,35
2017-10-14T07:58:24.326Z,35
2017-10-14T07:59:26.699Z,34
2017-10-14T08:00:29.100Z,34
2017-10-14T08:01:31.480Z,31
2017-10-14T08:02:33.852Z,30
2017-10-14T08:03:36.237Z,31
2017-10-14T08:04:38.964Z,31
2017-10-14T08:05:41.348Z,30
2017-10-14T08:06:44.449Z,34
2017-10-14T08:07:46.823Z,39
2017-10-14T08:08:49.212Z,45
2017-10-14T08:09:51.588Z,54
2017-10-14T08:10:53.977Z,46
2017-10-14T08:11:56.366Z,44
2017-10-14T08:12:58.749Z,44
2017-10-14T08:14:01.140Z,45
2017-10-14T08:15:03.520Z,47
2017-10-14T08:16:05.903Z,45
2017-10-14T08:17:08.288Z,50
2017-10-14T08:18:10.670Z,50
2017-10-14T08:19:13.049Z,41
2017-10-14T08:20:15.794Z,47
2017-10-14T08:21:18.176Z,45
2017-10-14T08:22:20.565Z,43
2017-10-14T08:23:22.952Z,41
2017-10-14T08:24:25.321Z,42
2017-10-14T08:25:27.713Z,39
2017-10-14T08:26:30.093Z,30
2017-10-14T08:27:33.209Z,29
2017-10-14T08:28:35.592Z,30
2017-10-14T08:29:37.977Z,32
2017-10-14T08:30:40.359Z,38
2017-10-14T08:31:43.096Z,39
2017-10-14T08:32:45.480Z,42
2017-10-14T08:33:47.861Z,39
2017-10-14T08:34:50.242Z,41
2017-10-14T08:35:52.622Z,44
2017-10-14T08:36:55.009Z,43
2017-10-14T08:37:57.399Z,42
2017-10-14T08:39:00.129Z,50
2017-10-14T08:40:02.517Z,43
2017-10-14T08:41:04.907Z,46
2017-10-14T08:42:07.284Z,49
2017-10-14T08:43:09.671Z,49
2017-10-14T08:44:12.053Z,53
2017-10-14T08:45:14.427Z,52
2017-10-14T08:46:17.159Z,50
2017-10-14T08:47:19.538Z,55
2017-10-14T08:48:21.923Z,50
2017-10-14T08:49:24.312Z,51
2017-10-14T08:50:27.024Z,57
2017-10-14T08:51:29.420Z,55
2017-10-14T08:52:31.809Z,52
2017-10-14T08:53:34.190Z,56
2017-10-14T08:54:36.581Z,60
2017-10-14T08:55:39.322Z,58
2017-10-14T08:56:41.704Z,58
2017-10-14T08:57:44.469Z,67
2017-10-14T08:58:46.854Z,77
2017-10-14T08:59:49.244Z,76
2017-10-14T09:00:51.982Z,76
2017-10-14T09:01:54.362Z,69
2017-10-14T09:02:56.746Z,75
2017-10-14T09:03:59.126Z,82
2017-10-14T09:05:01.509Z,84
2017-10-14T09:06:03.890Z,79
2017-10-14T09:07:06.274Z,76
2017-10-14T09:08:08.662Z,71
2017-10-14T09:09:11.037Z,75
2017-10-14T09:10:13.422Z,76
2017-10-14T09:11:15.815Z,71
2017-10-14T09:12:18.192Z,78
2017-10-14T09:13:20.576Z,87
2017-10-14T09:14:22.968Z,87
2017-10-14T09:15:25.348Z,82
2017-10-14T09:16:28.078Z,80
2017-10-14T09:17:30.462Z,73
2017-10-14T09:18:32.838Z,70
2017-10-14T09:19:35.221Z,67
2017-10-14T09:20:37.980Z,68
2017-10-14T09:21:40.362Z,64
2017-10-14T09:22:42.739Z,66
2017-10-14T09:23:45.129Z,68
2017-10-14T09:24:47.510Z,69
2017-10-14T09:25:49.903Z,76
2017-10-14T09:26:52.285Z,85
2017-10-14T09:27:54.661Z,84
2017-10-14T09:28:57.049Z,86
2017-10-14T09:29:59.437Z,83
2017-10-14T09:31:01.820Z,85
2017-10-14T09:32:04.199Z,91
2017-10-14T09:33:06.583Z,86
2017-10-14T09:34:08.971Z,90
2017-10-14T09:35:11.362Z,97
2017-10-14T09:36:13.753Z,94
2017-10-14T09:37:16.144Z,90
2017-10-14T09:38:18.522Z,82
2017-10-14T09:39:20.906Z,85
2017-10-14T09:40:23.288Z,83
2017-10-14T09:41:25.667Z,72
2017-10-14T09:42:28.059Z,70
2017-10-14T09:43:30.444Z,65
2017-10-14T09:44:32.816Z,59
2017-10-14T09:45:35.205Z,48
2017-10-14T09:46:37.599Z,48
2017-10-14T09:47:39.979Z,40
2017-10-14T09:48:42.370Z,38
2017-10-14T09:49:44.741Z,37
2017-10-14T09:50:47.484Z,35
2017-10-14T09:51:50.226Z,43
2017-10-14T09:52:52.613Z,48
2017-10-14T09:53:54.997Z,44
2017-10-14T09:54:57.377Z,47
2017-10-14T09:55:59.761Z,47
2017-10-14T09:57:02.503Z,43
2017-10-14T09:58:04.893Z,43
2017-10-14T09:59:07.269Z,45
2017-10-14T10:00:09.654Z,45
2017-10-14T10:01:12.046Z,47
2017-10-14T10:02:14.433Z,43
2017-10-14T10:03:16.819Z,39
2017-10-14T10:04:19.211Z,38
2017-10-14T10:05:21.602Z,37
2017-10-14T10:06:23.974Z,34
2017-10-14T10:07:26.359Z,33
2017-10-14T10:08:28.755Z,33
2017-10-14T10:09:31.127Z,37
2017-10-14T10:10:33.513Z,37
2017-10-14T10:11:35.901Z,36
2017-10-14T10:12:38.282Z,37
2017-10-14T10:13:40.666Z,41
2017-10-14T10:14:43.054Z,49
2017-10-14T10:15:45.424Z,68
2017-10-14T10:16:48.167Z,79
2017-10-14T10:17:50.560Z,78
2017-10-14T10:18:52.940Z,73
2017-10-14T10:19:55.331Z,66
2017-10-14T10:20:57.708Z,53
2017-10-14T10:22:00.101Z,50
2017-10-14T10:23:02.505Z,50
2017-10-14T10:24:05.244Z,42
2017-10-14T10:25:07.629Z,44
2017-10-14T10:26:10.015Z,41
2017-10-14T10:27:12.392Z,39
2017-10-14T10:28:14.779Z,41
2017-10-14T10:29:17.160Z,44
2017-10-14T10:30:19.536Z,39
2017-10-14T10:31:22.306Z,42
2017-10-14T10:32:24.685Z,44
2017-10-14T10:33:27.422Z,49
2017-10-14T10:34:30.079Z,46
2017-10-14T10:35:32.812Z,58
2017-10-14T10:36:35.191Z,52
2017-10-14T10:37:37.575Z,57
2017-10-14T10:38:39.955Z,70
2017-10-14T10:39:42.355Z,70
2017-10-14T10:40:45.085Z,70
2017-10-14T10:41:47.473Z,67
2017-10-14T10:42:49.858Z,75
2017-10-14T10:43:52.245Z,62
2017-10-14T10:44:54.638Z,73
2017-10-14T10:45:57.042Z,76
2017-10-14T10:46:59.423Z,94
2017-10-14T10:48:01.807Z,93
2017-10-14T10:49:04.197Z,80
2017-10-14T10:50:06.926Z,90
2017-10-14T10:51:09.304Z,90
2017-10-14T10:52:11.694Z,79
2017-10-14T10:53:14.276Z,89
2017-10-14T10:54:16.662Z,105
2017-10-14T10:55:19.059Z,96
2017-10-14T10:56:21.436Z,91
2017-10-14T10:57:23.828Z,71
2017-10-14T10:58:26.216Z,69
2017-10-14T10:59:28.602Z,96
2017-10-14T11:00:30.984Z,72
2017-10-14T11:01:33.379Z,81
2017-10-14T11:02:36.121Z,76
2017-10-14T11:03:38.494Z,74
2017-10-14T11:04:40.880Z,77
2017-10-14T11:05:43.275Z,62
2017-10-14T11:06:46.007Z,78
2017-10-14T11:07:48.395Z,94
2017-10-14T11:08:50.779Z,98
2017-10-14T11:09:53.157Z,72
2017-10-14T11:10:55.553Z,62
2017-10-14T11:11:57.939Z,60
2017-10-14T11:13:00.313Z,62
2017-10-14T11:14:03.082Z,61
2017-10-14T11:15:05.472Z,51
2017-10-14T11:16:07.842Z,46
2017-10-14T11:17:10.234Z,54
2017-10-14T11:18:12.612Z,53
2017-10-14T11:19:15.000Z,55
2017-10-14T11:20:17.384Z,54
2017-10-14T11:21:19.764Z,52
2017-10-14T11:22:22.155Z,66
2017-10-14T11:23:24.545Z,74
2017-10-14T11:24:26.923Z,61
2017-10-14T11:25:29.315Z,56
2017-10-14T11:26:31.701Z,55
2017-10-14T11:27:34.090Z,59
2017-10-14T11:28:36.466Z,61
2017-10-14T11:29:38.853Z,53
2017-10-14T11:30:41.236Z,55
2017-10-14T11:31:43.618Z,57
2017-10-14T11:32:46.003Z,56
2017-10-14T11:33:48.379Z,48
2017-10-14T11:34:50.763Z,42
2017-10-14T11:35:53.146Z,41
2017-10-14T11:36:55.549Z,39
2017-10-14T11:37:57.925Z,37
2017-10-14T11:39:00.304Z,37
2017-10-14T11:40:02.695Z,32
2017-10-14T11:41:05.077Z,30
2017-10-14T11:42:07.469Z,30
2017-10-14T11:43:09.852Z,26
2017-10-14T11:44:12.225Z,25
2017-10-14T11:45:14.609Z,22
2017-10-14T11:46:16.996Z,22
2017-10-14T11:47:19.378Z,27
2017-10-14T11:48:21.773Z,23
2017-10-14T11:49:24.154Z,24
2017-10-14T11:50:26.533Z,23
2017-10-14T11:51:28.925Z,24
2017-10-14T11:52:31.308Z,26
2017-10-14T11:53:33.698Z,25
2017-10-14T11:54:36.085Z,27
2017-10-14T11:55:38.453Z,26
2017-10-14T11:56:40.844Z,25
2017-10-14T11:57:43.245Z,28
2017-10-14T11:58:45.620Z,29
2017-10-14T11:59:48.354Z,27
2017-10-14T12:00:50.741Z,27
2017-10-14T12:01:53.122Z,30
2017-10-14T12:02:55.520Z,33
2017-10-14T12:03:57.926Z,38
2017-10-14T12:05:00.288Z,39
2017-10-14T12:06:02.670Z,41
2017-10-14T12:07:05.051Z,39
2017-10-14T12:08:07.450Z,35
2017-10-14T12:09:10.189Z,34
2017-10-14T12:10:12.937Z,35
2017-10-14T12:11:15.327Z,37
2017-10-14T12:12:17.696Z,38
2017-10-14T12:13:20.081Z,37
2017-10-14T12:14:22.473Z,39
2017-10-14T12:15:24.859Z,40
2017-10-14T12:16:27.248Z,46
2017-10-14T12:17:29.628Z,41
2017-10-14T12:18:32.367Z,49
2017-10-14T12:19:34.751Z,47
2017-10-14T12:20:37.138Z,43
2017-10-14T12:21:39.526Z,38
2017-10-14T12:22:41.911Z,39
2017-10-14T12:23:44.291Z,38
2017-10-14T12:24:46.667Z,38
2017-10-14T12:25:49.058Z,43
2017-10-14T12:26:51.443Z,38
2017-10-14T12:27:54.172Z,37
2017-10-14T12:28:56.570Z,37
2017-10-14T12:29:58.942Z,36
2017-10-14T12:31:01.329Z,39
2017-10-14T12:32:03.719Z,43
2017-10-14T12:33:06.090Z,37
2017-10-14T12:34:08.829Z,37
2017-10-14T12:35:11.215Z,35
2017-10-14T12:36:13.604Z,35
2017-10-14T12:37:16.337Z,35
2017-10-14T12:38:18.715Z,40
2017-10-14T12:39:21.099Z,38
2017-10-14T12:40:23.484Z,36
2017-10-14T12:41:25.865Z,39
2017-10-14T12:42:28.612Z,36
2017-10-14T12:43:31.000Z,36
2017-10-14T12:44:33.377Z,35
2017-10-14T12:45:36.133Z,35
2017-10-14T12:46:38.512Z,30
2017-10-14T12:47:40.888Z,28
2017-10-14T12:48:43.278Z,31
2017-10-14T12:49:45.665Z,29
2017-10-14T12:50:48.417Z,31
2017-10-14T12:51:50.808Z,35
2017-10-14T12:52:53.187Z,35
2017-10-14T12:53:55.571Z,32
2017-10-14T12:54:57.966Z,30
2017-10-14T12:56:00.345Z,29
2017-10-14T12:57:03.097Z,31
2017-10-14T12:58:05.488Z,34
2017-10-14T12:59:07.872Z,41
2017-10-14T13:00:10.253Z,49
2017-10-14T13:01:12.983Z,49
2017-10-14T13:02:15.760Z,49
2017-10-14T13:03:18.144Z,46
2017-10-14T13:04:20.878Z,43
2017-10-14T13:05:23.266Z,43
2017-10-14T13:06:25.994Z,41
2017-10-14T13:07:28.385Z,41
2017-10-14T13:08:30.768Z,46
2017-10-14T13:09:33.137Z,34
2017-10-14T13:10:35.525Z,42
2017-10-14T13:11:37.917Z,50
2017-10-14T13:12:40.301Z,44
2017-10-14T13:13:42.685Z,39
2017-10-14T13:14:45.077Z,48
2017-10-14T13:15:47.452Z,57
2017-10-14T13:16:49.840Z,43
2017-10-14T13:17:52.224Z,41
2017-10-14T13:18:54.603Z,47
2017-10-14T13:19:56.988Z,51
2017-10-14T13:20:59.377Z,51
2017-10-14T13:22:01.759Z,56
2017-10-14T13:23:04.146Z,60
2017-10-14T13:24:06.531Z,61
2017-10-14T13:25:08.914Z,60
2017-10-14T13:26:11.648Z,42
2017-10-14T13:27:14.040Z,44
2017-10-14T13:28:16.415Z,45
2017-10-14T13:29:18.809Z,46
2017-10-14T13:30:21.198Z,44
2017-10-14T13:31:23.939Z,46
2017-10-14T13:32:26.317Z,40
2017-10-14T13:33:28.709Z,43
2017-10-14T13:34:31.092Z,49
2017-10-14T13:35:33.470Z,47
2017-10-14T13:36:36.207Z,45
2017-10-14T13:37:38.598Z,48
2017-10-14T13:38:40.981Z,42
2017-10-14T13:39:43.370Z,43
2017-10-14T13:40:45.750Z,49
2017-10-14T13:41:48.133Z,51
2017-10-14T13:42:50.880Z,59
2017-10-14T13:43:53.249Z,51
2017-10-14T13:44:55.651Z,53
2017-10-14T13:45:58.029Z,49
2017-10-14T13:47:00.765Z,47
2017-10-14T13:48:03.143Z,41
2017-10-14T13:49:05.534Z,41
2017-10-14T13:50:07.916Z,40
2017-10-14T13:51:10.674Z,37
2017-10-14T13:52:13.057Z,40
2017-10-14T13:53:15.448Z,41
2017-10-14T13:54:17.833Z,41
2017-10-14T13:55:20.218Z,38
2017-10-14T13:56:22.602Z,35
2017-10-14T13:57:24.990Z,36
2017-10-14T13:58:27.727Z,34
2017-10-14T13:59:30.459Z,35
2017-10-14T14:00:32.837Z,33
2017-10-14T14:01:35.571Z,32
2017-10-14T14:02:38.305Z,25
2017-10-14T14:03:40.689Z,25
2017-10-14T14:04:43.072Z,26
2017-10-14T14:05:45.453Z,22
2017-10-14T14:06:47.843Z,23
2017-10-14T14:07:50.237Z,23
2017-10-14T14:08:52.616Z,20
2017-10-14T14:09:54.998Z,20
2017-10-14T14:10:57.379Z,20
2017-10-14T14:11:59.771Z,19
2017-10-14T14:13:02.150Z,22
2017-10-14T14:14:04.539Z,19
2017-10-14T14:15:06.929Z,20
2017-10-14T14:16:09.310Z,18
2017-10-14T14:17:11.694Z,16
2017-10-14T14:18:14.068Z,16
2017-10-14T14:19:16.459Z,16
2017-10-14T14:20:19.224Z,13
2017-10-14T14:21:21.615Z,15
2017-10-14T14:22:23.997Z,17
2017-10-14T14:23:26.386Z,16
2017-10-14T14:24:28.773Z,14
2017-10-14T14:25:31.164Z,16
2017-10-14T14:26:33.556Z,17
2017-10-14T14:27:36.426Z,14
2017-10-14T14:28:40.061Z,13
2017-10-14T14:29:43.004Z,14
2017-10-14T14:30:46.339Z,13
2017-10-14T14:31:48.795Z,13
2017-10-14T14:32:51.192Z,14
2017-10-14T14:33:53.576Z,15
2017-10-14T14:34:55.951Z,16
2017-10-14T14:35:58.347Z,15
2017-10-14T14:37:00.733Z,16
2017-10-14T14:38:03.118Z,16
2017-10-14T14:39:05.507Z,15
2017-10-14T14:40:07.895Z,17
2017-10-14T14:41:10.270Z,17
2017-10-14T14:42:12.670Z,17
2017-10-14T14:43:15.045Z,17
2017-10-14T14:44:17.421Z,19
2017-10-14T14:45:19.804Z,15
2017-10-14T14:46:22.181Z,14
2017-10-14T14:47:24.575Z,15
2017-10-14T14:48:27.306Z,14
2017-10-14T14:49:29.671Z,13
2017-10-14T14:50:32.062Z,14
2017-10-14T14:51:34.445Z,14
2017-10-14T14:52:36.829Z,13
2017-10-14T14:53:39.220Z,11
2017-10-14T14:54:41.609Z,10
2017-10-14T14:55:43.995Z,10
2017-10-14T14:56:46.382Z,10
2017-10-14T14:57:49.121Z,8
2017-10-14T14:58:51.512Z,8
2017-10-14T14:59:53.886Z,8
2017-10-14T15:00:56.280Z,8
2017-10-14T15:01:59.015Z,9
2017-10-14T15:03:01.401Z,8
2017-10-14T15:04:03.791Z,8
2017-10-14T15:05:06.178Z,8